Time;durP1;ratioP1;P1;durP2;ratioP2;P2;SDS_P1;SDS_P2;PMS_P1;PMS_P2;Temp;Humidity;BMP_temperature;BMP_pressure;BME280_temperature;BME280_humidity;BME280_pressure;Samples;Min_cycle;Max_cycle;Signal;HPM_P1;HPM_P2
2024/01/16 00:00:19;;;;;;;13.93;6.93;;;0.20;99.90;;;;;;4146002;28;20277;-58
2024/01/16 00:02:20;;;;;;;12.20;5.97;;;0.20;99.90;;;;;;4146207;28;20850;-58
2024/01/16 00:04:21;;;;;;;12.97;6.97;;;0.10;99.90;;;;;;4145428;28;20314;-58
2024/01/16 00:06:22;;;;;;;14.93;7.57;;;0.10;99.90;;;;;;4145999;28;20263;-57
2024/01/16 00:08:24;;;;;;;15.10;7.83;;;0.00;99.90;;;;;;4145601;28;21194;-55
2024/01/16 00:10:25;;;;;;;16.37;7.30;;;0.10;99.90;;;;;;4146020;28;20291;-56
2024/01/16 00:12:26;;;;;;;15.13;7.57;;;0.10;99.90;;;;;;4146054;28;20763;-55
2024/01/16 00:14:27;;;;;;;9.63;5.13;;;0.10;99.90;;;;;;4146008;28;20318;-58
2024/01/16 00:16:28;;;;;;;10.27;5.50;;;0.00;99.90;;;;;;4145869;28;20295;-57
2024/01/16 00:18:30;;;;;;;11.83;5.97;;;0.10;99.90;;;;;;4146060;28;20645;-57
2024/01/16 00:20:31;;;;;;;13.53;7.07;;;0.10;99.90;;;;;;4145610;28;20271;-57
2024/01/16 00:22:32;;;;;;;13.73;6.27;;;0.10;99.90;;;;;;4146142;28;20271;-56
2024/01/16 00:24:33;;;;;;;10.80;5.37;;;0.10;99.90;;;;;;4145987;28;20275;-57
2024/01/16 00:26:35;;;;;;;8.87;4.67;;;0.10;99.90;;;;;;4145707;28;20762;-57
2024/01/16 00:28:36;;;;;;;9.87;4.73;;;0.20;99.90;;;;;;4145968;28;20330;-56
2024/01/16 00:30:38;;;;;;;16.93;6.60;;;0.20;99.90;;;;;;4145963;28;20268;-57
2024/01/16 00:32:39;;;;;;;12.30;5.97;;;0.20;99.90;;;;;;4145674;28;20585;-58
2024/01/16 00:34:44;;;;;;;13.37;7.03;;;0.20;99.90;;;;;;4145884;28;20763;-57
2024/01/16 00:36:45;;;;;;;15.47;7.10;;;0.20;99.90;;;;;;4145448;28;20368;-56
2024/01/16 00:38:46;;;;;;;14.83;6.70;;;0.20;99.90;;;;;;4144330;28;20264;-57
2024/01/16 00:40:47;;;;;;;13.53;6.87;;;0.20;99.90;;;;;;4144440;28;20805;-58
2024/01/16 00:42:49;;;;;;;13.70;6.90;;;0.30;99.90;;;;;;4145321;28;20255;-58
2024/01/16 00:44:50;;;;;;;10.57;5.60;;;0.30;99.90;;;;;;4145698;28;20268;-57
2024/01/16 00:46:51;;;;;;;10.27;5.40;;;0.30;99.90;;;;;;4144323;28;21135;-56
2024/01/16 00:48:52;;;;;;;12.37;5.50;;;0.30;99.90;;;;;;4145324;28;20349;-58
2024/01/16 00:50:54;;;;;;;8.47;4.83;;;0.30;99.90;;;;;;4145249;28;20255;-57
2024/01/16 00:52:55;;;;;;;13.63;5.60;;;0.30;99.90;;;;;;4145519;28;20264;-56
2024/01/16 00:54:56;;;;;;;12.53;6.37;;;0.30;99.90;;;;;;4144330;28;20362;-57
2024/01/16 00:56:59;;;;;;;13.73;6.30;;;0.30;99.90;;;;;;4145215;28;20373;-55
2024/01/16 00:59:01;;;;;;;13.07;6.80;;;0.30;99.90;;;;;;4145178;28;20695;-57
2024/01/16 01:01:02;;;;;;;12.37;6.60;;;0.30;99.90;;;;;;4145309;28;20687;-55
2024/01/16 01:03:04;;;;;;;12.43;5.80;;;0.30;99.90;;;;;;4145220;28;20267;-56
2024/01/16 01:05:06;;;;;;;11.97;6.07;;;0.20;99.90;;;;;;4145090;28;20321;-57
2024/01/16 01:07:08;;;;;;;10.80;5.33;;;0.30;99.90;;;;;;4145316;28;20279;-57
2024/01/16 01:09:11;;;;;;;7.63;4.03;;;0.30;99.90;;;;;;4144870;28;20267;-56
2024/01/16 01:11:12;;;;;;;10.37;4.23;;;0.20;99.90;;;;;;4144832;28;20263;-55
2024/01/16 01:13:14;;;;;;;8.60;4.17;;;0.30;99.90;;;;;;4145024;28;20255;-55
2024/01/16 01:15:15;;;;;;;8.33;4.07;;;0.30;99.90;;;;;;4144611;28;20271;-57
2024/01/16 01:17:16;;;;;;;7.63;4.30;;;0.30;99.90;;;;;;4143276;28;20303;-57
2024/01/16 01:19:18;;;;;;;9.70;4.77;;;0.30;99.90;;;;;;4144682;28;20271;-58
2024/01/16 01:21:19;;;;;;;13.43;5.83;;;0.30;99.90;;;;;;4145144;28;20852;-59
2024/01/16 01:23:20;;;;;;;22.13;10.70;;;0.30;99.90;;;;;;4145048;28;20748;-58
2024/01/16 01:25:22;;;;;;;14.50;7.87;;;0.30;99.90;;;;;;4144984;28;20313;-57
2024/01/16 01:27:23;;;;;;;10.37;6.30;;;0.20;99.90;;;;;;4144775;28;20298;-58
2024/01/16 01:29:24;;;;;;;7.00;4.43;;;0.20;99.90;;;;;;4144676;28;20247;-52
2024/01/16 01:31:25;;;;;;;10.17;4.27;;;0.20;99.90;;;;;;4144546;28;20259;-57
2024/01/16 01:33:27;;;;;;;6.77;3.80;;;0.10;99.90;;;;;;4144787;28;20663;-56
2024/01/16 01:35:28;;;;;;;6.40;3.87;;;0.10;99.90;;;;;;4144715;28;20267;-56
2024/01/16 01:37:29;;;;;;;6.23;3.63;;;0.00;99.90;;;;;;4144544;28;20288;-57
2024/01/16 01:39:30;;;;;;;6.27;3.33;;;0.00;99.90;;;;;;4144832;28;20676;-59
2024/01/16 01:41:31;;;;;;;5.17;3.10;;;0.00;99.90;;;;;;4144235;28;20818;-59
2024/01/16 01:43:33;;;;;;;8.60;3.03;;;0.00;99.90;;;;;;4144639;28;20268;-59
2024/01/16 01:45:34;;;;;;;5.77;3.27;;;0.00;99.90;;;;;;4144366;28;20755;-57
2024/01/16 01:47:35;;;;;;;5.17;2.90;;;0.00;99.90;;;;;;4143848;28;20712;-54
2024/01/16 01:49:37;;;;;;;4.33;2.57;;;0.00;99.90;;;;;;4143652;28;20321;-56
2024/01/16 01:51:38;;;;;;;2.80;1.70;;;0.00;99.90;;;;;;4144108;28;20645;-58
2024/01/16 01:53:42;;;;;;;3.83;2.30;;;0.00;99.90;;;;;;4144452;28;20814;-58
2024/01/16 01:55:43;;;;;;;5.40;2.40;;;0.00;99.90;;;;;;4144508;28;20275;-57
2024/01/16 01:57:45;;;;;;;3.27;1.97;;;0.10;99.90;;;;;;4144494;28;20358;-58
2024/01/16 01:59:46;;;;;;;6.20;2.50;;;0.00;99.90;;;;;;4143972;28;20267;-57
2024/01/16 02:01:52;;;;;;;5.60;2.80;;;0.00;99.90;;;;;;4144520;28;20887;-57
2024/01/16 02:03:55;;;;;;;5.60;2.70;;;0.00;99.90;;;;;;4144732;28;20264;-58
2024/01/16 02:05:56;;;;;;;4.53;2.77;;;0.00;99.90;;;;;;4144478;28;20330;-56
2024/01/16 02:07:58;;;;;;;6.17;2.33;;;0.00;99.90;;;;;;4144456;28;20346;-58
2024/01/16 02:10:01;;;;;;;2.43;2.13;;;0.00;99.90;;;;;;4144131;28;20275;-56
2024/01/16 02:12:02;;;;;;;4.53;2.47;;;0.00;99.90;;;;;;4144246;28;20723;-57
2024/01/16 02:14:03;;;;;;;4.07;2.77;;;0.00;99.90;;;;;;4143746;28;20279;-53
2024/01/16 02:16:05;;;;;;;4.73;2.40;;;0.00;99.90;;;;;;4143800;28;20268;-58
2024/01/16 02:18:07;;;;;;;4.50;2.50;;;0.00;99.90;;;;;;4143302;28;20275;-59
2024/01/16 02:20:09;;;;;;;4.00;2.47;;;0.00;99.90;;;;;;4143758;28;20279;-59
2024/01/16 02:22:15;;;;;;;5.90;2.83;;;0.00;99.90;;;;;;4143804;28;20279;-58
2024/01/16 02:24:18;;;;;;;4.83;2.83;;;0.00;99.90;;;;;;4144699;28;20267;-57
2024/01/16 02:26:20;;;;;;;5.70;2.43;;;0.00;99.90;;;;;;4143725;28;20271;-56
2024/01/16 02:28:21;;;;;;;4.47;2.80;;;0.00;99.90;;;;;;4143531;28;20337;-55
2024/01/16 02:30:22;;;;;;;3.00;2.23;;;0.00;99.90;;;;;;4143960;28;20322;-58
2024/01/16 02:32:23;;;;;;;3.83;2.40;;;0.00;99.90;;;;;;4144191;28;20268;-56
2024/01/16 02:34:24;;;;;;;3.50;2.43;;;0.00;99.90;;;;;;4143918;28;20275;-56
2024/01/16 02:36:26;;;;;;;3.80;2.40;;;0.00;99.90;;;;;;4143974;28;20329;-58
2024/01/16 02:38:27;;;;;;;5.13;3.07;;;-0.10;99.90;;;;;;4143838;28;20322;-57
2024/01/16 02:40:28;;;;;;;4.30;2.33;;;-0.10;99.90;;;;;;4144081;28;20332;-57
2024/01/16 02:42:31;;;;;;;5.67;3.10;;;-0.10;99.90;;;;;;4143987;28;20330;-55
2024/01/16 02:44:32;;;;;;;4.57;3.03;;;-0.10;99.90;;;;;;4143820;28;20757;-58
2024/01/16 02:46:34;;;;;;;7.07;3.23;;;-0.20;99.90;;;;;;4143652;28;20778;-55
2024/01/16 02:48:36;;;;;;;5.10;2.67;;;-0.30;99.90;;;;;;4143438;28;20267;-57
2024/01/16 02:50:38;;;;;;;5.77;3.63;;;-0.40;99.90;;;;;;4143197;28;20263;-56
2024/01/16 02:52:39;;;;;;;4.23;2.67;;;-0.50;99.90;;;;;;4143260;28;20263;-57
2024/01/16 02:54:40;;;;;;;5.37;2.50;;;-0.60;99.90;;;;;;4143985;28;20760;-56
2024/01/16 02:56:41;;;;;;;4.23;2.63;;;-0.60;99.90;;;;;;4143544;28;20275;-57
2024/01/16 02:58:43;;;;;;;5.53;2.47;;;-0.70;99.90;;;;;;4143739;28;20329;-57
2024/01/16 03:00:44;;;;;;;4.47;2.57;;;-0.70;99.90;;;;;;4143490;28;20302;-50
2024/01/16 03:02:45;;;;;;;5.80;2.57;;;-0.60;99.90;;;;;;4143260;28;20675;-55
2024/01/16 03:04:47;;;;;;;6.83;3.10;;;-0.60;99.90;;;;;;4142149;28;20330;-59
2024/01/16 03:06:48;;;;;;;5.90;3.40;;;-0.60;99.90;;;;;;4143453;28;20318;-52
2024/01/16 03:08:49;;;;;;;6.07;3.27;;;-0.60;99.90;;;;;;4143695;28;20279;-57
2024/01/16 03:10:50;;;;;;;5.70;3.83;;;-0.60;99.90;;;;;;4143612;28;20683;-54
2024/01/16 03:12:51;;;;;;;8.30;3.87;;;-0.60;99.90;;;;;;4143622;28;20263;-55
2024/01/16 03:14:53;;;;;;;8.07;3.93;;;-0.60;99.90;;;;;;4143687;28;20275;-57
2024/01/16 03:16:54;;;;;;;5.33;3.67;;;-0.70;99.90;;;;;;4143407;28;20819;-56
2024/01/16 03:18:55;;;;;;;8.90;3.63;;;-0.70;99.90;;;;;;4143143;28;20571;-53
2024/01/16 03:20:59;;;;;;;6.93;3.13;;;-0.70;99.90;;;;;;4143317;28;20268;-57
2024/01/16 03:23:00;;;;;;;8.27;4.00;;;-0.80;99.90;;;;;;4142153;28;20745;-56
2024/01/16 03:25:02;;;;;;;6.70;3.77;;;-0.80;99.90;;;;;;4143546;28;20732;-57
2024/01/16 03:27:04;;;;;;;6.60;3.80;;;-0.80;99.90;;;;;;4143117;28;20322;-55
2024/01/16 03:29:06;;;;;;;6.10;3.60;;;-0.70;99.90;;;;;;4142776;28;20267;-49
2024/01/16 03:31:07;;;;;;;4.73;3.00;;;-0.70;99.90;;;;;;4142959;28;20264;-57
2024/01/16 03:33:09;;;;;;;4.37;2.70;;;-0.70;99.90;;;;;;4143280;28;20385;-57
2024/01/16 03:35:10;;;;;;;6.60;3.50;;;-0.70;99.90;;;;;;4143147;28;20293;-54
2024/01/16 03:37:11;;;;;;;4.33;2.57;;;-0.70;99.90;;;;;;4143286;28;20287;-57
2024/01/16 03:39:12;;;;;;;5.23;2.80;;;-0.70;99.90;;;;;;4143996;28;20697;-56
2024/01/16 03:41:13;;;;;;;6.40;3.20;;;-0.70;99.90;;;;;;4146231;28;20756;-55
2024/01/16 03:43:15;;;;;;;7.10;3.13;;;-0.70;99.90;;;;;;4145999;28;20259;-57
2024/01/16 03:45:16;;;;;;;4.93;2.83;;;-0.70;99.90;;;;;;4146524;28;20264;-53
2024/01/16 03:47:17;;;;;;;5.13;3.07;;;-0.70;99.90;;;;;;4146267;28;20263;-52
2024/01/16 03:49:18;;;;;;;7.87;4.53;;;-0.70;99.90;;;;;;4146311;28;20260;-53
2024/01/16 03:51:19;;;;;;;6.67;4.17;;;-0.70;99.90;;;;;;4146395;28;20329;-52
2024/01/16 03:53:21;;;;;;;5.50;3.63;;;-0.70;99.90;;;;;;4145886;28;20322;-58
2024/01/16 03:55:22;;;;;;;5.80;3.37;;;-0.70;99.90;;;;;;4146227;28;20317;-54
2024/01/16 03:57:24;;;;;;;5.40;3.10;;;-0.70;99.90;;;;;;4145867;28;20349;-57
2024/01/16 03:59:25;;;;;;;6.33;3.43;;;-0.80;99.90;;;;;;4146246;28;20279;-56
2024/01/16 04:01:36;;;;;;;8.57;3.80;;;-0.80;99.90;;;;;;4145830;28;20785;-55
2024/01/16 04:03:38;;;;;;;5.78;2.88;;;-0.80;99.90;;;;;;4146194;28;20263;-54
2024/01/16 04:05:39;;;;;;;6.70;3.80;;;-0.90;99.90;;;;;;4146035;28;20071;-54
2024/01/16 04:07:41;;;;;;;6.37;3.70;;;-0.90;99.90;;;;;;4145931;28;20283;-55
2024/01/16 04:09:43;;;;;;;6.20;3.87;;;-0.90;99.90;;;;;;4145728;28;20289;-56
2024/01/16 04:11:44;;;;;;;7.13;3.67;;;-0.90;99.90;;;;;;4145659;28;20268;-56
2024/01/16 04:13:46;;;;;;;7.40;4.43;;;-1.00;99.90;;;;;;4145907;28;20323;-54
2024/01/16 04:15:47;;;;;;;4.33;2.93;;;-1.00;99.90;;;;;;4145600;28;20264;-55
2024/01/16 04:17:48;;;;;;;7.57;3.77;;;-1.10;99.90;;;;;;4145741;28;20303;-56
2024/01/16 04:19:49;;;;;;;7.47;4.10;;;-1.10;99.90;;;;;;4145781;28;20275;-54
2024/01/16 04:21:51;;;;;;;6.57;3.80;;;-1.10;99.90;;;;;;4145577;28;20321;-55
2024/01/16 04:23:52;;;;;;;5.17;3.30;;;-1.20;99.90;;;;;;4146245;28;20802;-52
2024/01/16 04:25:53;;;;;;;8.07;3.60;;;-1.20;99.90;;;;;;4145833;28;20263;-54
2024/01/16 04:27:54;;;;;;;7.83;2.93;;;-1.20;99.90;;;;;;4145566;28;20279;-55
2024/01/16 04:29:55;;;;;;;6.40;3.20;;;-1.20;99.90;;;;;;4145489;28;20263;-57
2024/01/16 04:31:57;;;;;;;6.23;3.63;;;-1.30;99.90;;;;;;4145359;28;20283;-57
2024/01/16 04:33:58;;;;;;;5.17;3.57;;;-1.30;99.90;;;;;;4145759;28;20784;-56
2024/01/16 04:35:59;;;;;;;7.27;4.03;;;-1.30;99.90;;;;;;4145067;28;20280;-56
2024/01/16 04:38:01;;;;;;;7.13;3.60;;;-1.30;99.90;;;;;;4145625;28;20295;-55
2024/01/16 04:40:02;;;;;;;7.60;4.33;;;-1.30;99.90;;;;;;4145400;28;20727;-55
2024/01/16 04:42:03;;;;;;;7.87;4.77;;;-1.30;99.90;;;;;;4145018;28;20268;-55
2024/01/16 04:44:05;;;;;;;7.27;4.13;;;-1.40;99.90;;;;;;4144882;28;20752;-57
2024/01/16 04:46:06;;;;;;;7.57;4.20;;;-1.40;99.90;;;;;;4145503;28;20271;-53
2024/01/16 04:48:08;;;;;;;7.17;4.30;;;-1.40;99.90;;;;;;4144831;28;21108;-56
2024/01/16 04:50:09;;;;;;;9.43;4.77;;;-1.40;99.90;;;;;;4144839;28;20276;-54
2024/01/16 04:52:11;;;;;;;12.40;6.40;;;-1.40;99.90;;;;;;4145200;28;20275;-52
2024/01/16 04:54:12;;;;;;;10.50;5.50;;;-1.40;99.90;;;;;;4145352;28;20321;-55
2024/01/16 04:56:13;;;;;;;10.60;6.00;;;-1.40;99.90;;;;;;4145147;28;20317;-53
2024/01/16 04:58:14;;;;;;;10.87;5.80;;;-1.40;99.90;;;;;;4144568;28;20640;-54
2024/01/16 05:00:16;;;;;;;10.87;5.33;;;-1.40;99.90;;;;;;4144855;28;20283;-57
2024/01/16 05:02:18;;;;;;;16.50;7.00;;;-1.40;99.90;;;;;;4144934;28;20264;-57
2024/01/16 05:04:21;;;;;;;11.47;5.37;;;-1.40;99.90;;;;;;4145592;28;20271;-57
2024/01/16 05:06:22;;;;;;;13.40;6.57;;;-1.40;99.90;;;;;;4144942;28;20267;-54
2024/01/16 05:08:24;;;;;;;9.30;4.80;;;-1.40;99.90;;;;;;4145253;28;20364;-57
2024/01/16 05:10:25;;;;;;;12.70;4.93;;;-1.40;99.90;;;;;;4144789;28;20275;-49
2024/01/16 05:12:26;;;;;;;14.33;7.67;;;-1.40;99.90;;;;;;4144594;28;20275;-54
2024/01/16 05:14:27;;;;;;;11.87;7.60;;;-1.30;99.90;;;;;;4144827;28;20310;-55
2024/01/16 05:16:28;;;;;;;14.93;8.03;;;-1.40;99.90;;;;;;4144666;28;20709;-52
2024/01/16 05:18:30;;;;;;;13.03;7.90;;;-1.40;99.90;;;;;;4144768;28;20299;-56
2024/01/16 05:20:31;;;;;;;10.43;7.30;;;-1.40;99.90;;;;;;4144273;28;20302;-54
2024/01/16 05:22:32;;;;;;;11.03;6.43;;;-1.40;99.90;;;;;;4143779;28;20280;-57
2024/01/16 05:24:33;;;;;;;9.73;5.50;;;-1.40;99.90;;;;;;4144402;28;20330;-58
2024/01/16 05:26:35;;;;;;;8.63;4.90;;;-1.40;99.90;;;;;;4144316;28;20767;-56
2024/01/16 05:28:36;;;;;;;6.30;4.20;;;-1.30;99.90;;;;;;4144300;28;20275;-54
2024/01/16 05:30:37;;;;;;;6.77;4.30;;;-1.40;99.90;;;;;;4144632;28;20283;-54
2024/01/16 05:32:41;;;;;;;11.57;4.23;;;-1.30;99.90;;;;;;4144409;28;20771;-57
2024/01/16 05:34:42;;;;;;;7.77;4.53;;;-1.30;99.90;;;;;;4144228;28;20263;-55
2024/01/16 05:36:44;;;;;;;9.23;4.73;;;-1.20;99.90;;;;;;4144067;28;20322;-52
2024/01/16 05:38:45;;;;;;;9.23;4.60;;;-1.20;99.90;;;;;;4144319;28;20349;-56
2024/01/16 05:40:46;;;;;;;8.30;4.70;;;-1.20;99.90;;;;;;4130562;28;20327;-54
2024/01/16 05:42:48;;;;;;;8.97;4.30;;;-1.10;99.90;;;;;;4128172;28;20307;-55
2024/01/16 05:44:49;;;;;;;8.17;4.60;;;-1.00;99.90;;;;;;4127893;28;20311;-56
2024/01/16 05:46:51;;;;;;;6.23;4.13;;;-1.00;99.90;;;;;;4136010;28;20264;-55
2024/01/16 05:48:52;;;;;;;7.07;4.33;;;-1.00;99.90;;;;;;4143611;28;20694;-55
2024/01/16 05:50:53;;;;;;;6.30;3.97;;;-0.90;99.90;;;;;;4143880;28;20267;-56
2024/01/16 05:52:54;;;;;;;7.93;4.20;;;-0.90;99.90;;;;;;4144098;28;20271;-52
2024/01/16 05:54:57;;;;;;;7.50;4.53;;;-0.80;99.90;;;;;;4144168;28;20827;-52
2024/01/16 05:56:58;;;;;;;7.47;4.50;;;-0.80;99.90;;;;;;4143848;28;20271;-54
2024/01/16 05:58:59;;;;;;;8.47;5.63;;;-0.70;99.90;;;;;;4144000;28;20300;-53
2024/01/16 06:01:00;;;;;;;6.27;4.43;;;-0.70;99.90;;;;;;4143842;28;20663;-55
2024/01/16 06:03:02;;;;;;;12.17;7.50;;;-0.70;99.90;;;;;;4131225;28;20302;-53
2024/01/16 06:05:04;;;;;;;11.37;6.10;;;-0.70;99.90;;;;;;4139636;28;20287;-58
2024/01/16 06:07:08;;;;;;;11.00;7.00;;;-0.60;99.90;;;;;;4128098;28;20319;-55
2024/01/16 06:09:12;;;;;;;8.00;5.70;;;-0.60;99.90;;;;;;4140651;28;20283;-58
2024/01/16 06:11:13;;;;;;;9.83;5.80;;;-0.50;99.90;;;;;;4143708;28;20660;-57
2024/01/16 06:13:14;;;;;;;13.13;6.83;;;-0.50;99.90;;;;;;4142164;28;20409;-58
2024/01/16 06:15:15;;;;;;;11.53;7.03;;;-0.50;99.90;;;;;;4143789;28;20268;-58
2024/01/16 06:17:16;;;;;;;9.37;5.80;;;-0.50;99.90;;;;;;4143694;28;20279;-57
2024/01/16 06:19:18;;;;;;;13.10;6.27;;;-0.50;99.90;;;;;;4142211;28;20303;-58
2024/01/16 06:21:19;;;;;;;10.13;5.77;;;-0.40;99.90;;;;;;4143497;28;20309;-57
2024/01/16 06:23:20;;;;;;;10.60;5.23;;;-0.40;99.90;;;;;;4142410;28;20727;-57
2024/01/16 06:25:21;;;;;;;9.97;6.70;;;-0.50;99.90;;;;;;4143545;28;20275;-59
2024/01/16 06:27:22;;;;;;;8.53;5.77;;;-0.50;99.90;;;;;;4142777;28;20353;-57
2024/01/16 06:29:23;;;;;;;11.03;6.23;;;-0.40;99.90;;;;;;4143726;28;20921;-57
2024/01/16 06:31:26;;;;;;;9.53;6.03;;;-0.40;99.90;;;;;;4143933;28;20894;-58
2024/01/16 06:33:27;;;;;;;7.20;4.23;;;-0.20;99.90;;;;;;4143665;28;20736;-58
2024/01/16 06:35:28;;;;;;;5.87;3.97;;;0.00;99.90;;;;;;4143839;28;20601;-56
2024/01/16 06:37:29;;;;;;;8.23;4.33;;;0.20;99.90;;;;;;4143691;28;20275;-59
2024/01/16 06:39:31;;;;;;;7.03;4.10;;;0.40;99.90;;;;;;4143840;28;20355;-58
2024/01/16 06:41:32;;;;;;;6.50;4.10;;;0.50;99.90;;;;;;4143567;28;20626;-57
2024/01/16 06:43:33;;;;;;;9.77;5.77;;;0.50;99.90;;;;;;4143715;28;20256;-59
2024/01/16 06:45:34;;;;;;;11.07;6.50;;;0.40;99.90;;;;;;4143566;28;20670;-55
2024/01/16 06:47:35;;;;;;;10.80;6.50;;;0.40;99.90;;;;;;4143501;28;20721;-58
2024/01/16 06:49:37;;;;;;;10.67;6.47;;;0.30;99.90;;;;;;4143874;28;20676;-58
2024/01/16 06:51:38;;;;;;;13.90;9.57;;;0.30;99.90;;;;;;4143714;28;20759;-57
2024/01/16 06:53:39;;;;;;;11.77;7.63;;;0.20;99.90;;;;;;4143666;28;20255;-58
2024/01/16 06:55:40;;;;;;;9.07;6.17;;;0.20;99.90;;;;;;4143912;28;20275;-59
2024/01/16 06:57:42;;;;;;;12.40;7.60;;;0.60;99.90;;;;;;4142901;28;20338;-59
2024/01/16 06:59:43;;;;;;;8.63;5.60;;;0.90;99.90;;;;;;4143479;28;20325;-60
2024/01/16 07:01:44;;;;;;;14.30;7.17;;;1.20;99.90;;;;;;4143351;28;20675;-58
2024/01/16 07:03:45;;;;;;;9.03;5.33;;;1.50;99.90;;;;;;4143577;28;20271;-58
2024/01/16 07:05:46;;;;;;;11.70;6.37;;;1.90;99.90;;;;;;4143496;28;20744;-56
2024/01/16 07:07:48;;;;;;;11.57;6.70;;;2.10;99.90;;;;;;4143172;28;20271;-54
2024/01/16 07:09:50;;;;;;;9.17;5.67;;;2.50;99.90;;;;;;4143275;28;20343;-59
2024/01/16 07:11:51;;;;;;;11.07;5.50;;;2.70;99.90;;;;;;4142904;28;20910;-59
2024/01/16 07:13:52;;;;;;;9.00;5.40;;;3.10;99.90;;;;;;4143218;28;20321;-58
2024/01/16 07:15:53;;;;;;;9.13;5.47;;;3.50;99.90;;;;;;4146440;28;20042;-56
2024/01/16 07:17:54;;;;;;;9.17;5.63;;;3.70;99.90;;;;;;4146253;28;20080;-56
2024/01/16 07:19:56;;;;;;;6.50;4.50;;;4.00;99.90;;;;;;4146483;28;20095;-54
2024/01/16 07:21:57;;;;;;;9.73;4.00;;;4.00;99.90;;;;;;4146659;28;20038;-58
2024/01/16 07:23:58;;;;;;;5.53;4.10;;;3.70;99.90;;;;;;4146566;28;20046;-56
2024/01/16 07:25:59;;;;;;;9.03;6.53;;;3.60;99.90;;;;;;4146949;28;20505;-53
2024/01/16 07:28:00;;;;;;;10.30;6.10;;;3.80;99.90;;;;;;4146252;28;20053;-57
2024/01/16 07:30:04;;;;;;;8.27;5.00;;;3.70;99.90;;;;;;4146532;28;20473;-56
2024/01/16 07:32:06;;;;;;;8.67;5.90;;;3.50;99.90;;;;;;4146462;28;20095;-57
2024/01/16 07:34:07;;;;;;;9.63;5.70;;;3.80;99.90;;;;;;4146183;28;20072;-56
2024/01/16 07:36:09;;;;;;;10.73;6.30;;;4.20;99.90;;;;;;4144933;28;20042;-55
2024/01/16 07:38:10;;;;;;;9.13;6.43;;;4.20;99.90;;;;;;4146397;28;20046;-57
2024/01/16 07:40:12;;;;;;;7.10;5.20;;;4.20;99.90;;;;;;4146150;28;20030;-57
2024/01/16 07:42:13;;;;;;;8.50;5.53;;;4.60;99.90;;;;;;4145784;28;20025;-58
2024/01/16 07:44:14;;;;;;;9.23;4.47;;;5.10;99.90;;;;;;4146257;28;20402;-59
2024/01/16 07:46:16;;;;;;;5.43;3.80;;;5.40;99.90;;;;;;4146197;28;20050;-58
2024/01/16 07:48:17;;;;;;;6.13;4.17;;;5.40;99.90;;;;;;4146023;28;20042;-58
2024/01/16 07:50:18;;;;;;;5.37;3.97;;;5.40;99.90;;;;;;4146087;28;20084;-57
2024/01/16 07:52:19;;;;;;;5.33;3.53;;;5.60;99.90;;;;;;4146143;28;20096;-57
2024/01/16 07:54:21;;;;;;;5.27;3.57;;;5.80;99.90;;;;;;4145851;28;20461;-59
2024/01/16 07:56:22;;;;;;;6.67;3.80;;;5.90;99.90;;;;;;4146208;28;20025;-57
2024/01/16 07:58:23;;;;;;;5.20;3.53;;;5.60;99.90;;;;;;4145866;28;20475;-58
2024/01/16 08:00:24;;;;;;;8.87;4.33;;;5.30;99.90;;;;;;4146002;28;20042;-58
2024/01/16 08:02:32;;;;;;;28.17;12.60;;;5.20;99.90;;;;;;4145998;28;20045;-58
2024/01/16 08:04:33;;;;;;;15.60;7.43;;;5.10;99.90;;;;;;4145599;28;20155;-59
2024/01/16 08:06:34;;;;;;;20.83;8.10;;;4.80;99.90;;;;;;4145772;28;20173;-57
2024/01/16 08:08:35;;;;;;;16.27;7.23;;;4.60;99.90;;;;;;4145709;28;20084;-57
2024/01/16 08:10:37;;;;;;;10.33;6.23;;;4.40;99.90;;;;;;4145880;28;20042;-57
2024/01/16 08:12:38;;;;;;;16.63;8.87;;;4.10;99.90;;;;;;4145486;28;20038;-58
2024/01/16 08:14:39;;;;;;;15.83;8.50;;;4.20;99.90;;;;;;4145759;28;20402;-54
2024/01/16 08:16:40;;;;;;;9.60;5.13;;;4.30;99.90;;;;;;4145732;28;20065;-58
2024/01/16 08:18:41;;;;;;;12.70;6.23;;;4.10;99.90;;;;;;4145599;28;20457;-59
2024/01/16 08:20:43;;;;;;;15.60;8.07;;;4.10;99.90;;;;;;4145546;28;20038;-57
2024/01/16 08:22:44;;;;;;;8.40;4.93;;;4.40;99.90;;;;;;4145733;28;20085;-57
2024/01/16 08:24:45;;;;;;;6.80;3.77;;;4.50;99.90;;;;;;4142023;28;20050;-57
2024/01/16 08:26:46;;;;;;;6.43;3.80;;;4.40;99.90;;;;;;4146691;28;20038;-57
2024/01/16 08:28:47;;;;;;;8.43;4.17;;;4.30;99.90;;;;;;4141329;28;20066;-54
2024/01/16 08:30:48;;;;;;;9.67;5.93;;;4.30;99.90;;;;;;4139796;28;20042;-56
2024/01/16 08:32:50;;;;;;;11.67;7.10;;;4.30;99.90;;;;;;4143108;28;20088;-58
2024/01/16 08:34:51;;;;;;;6.50;3.80;;;4.50;99.90;;;;;;4144277;28;20042;-57
2024/01/16 08:36:56;;;;;;;7.97;4.17;;;4.60;99.90;;;;;;4144347;28;20033;-57
2024/01/16 08:38:57;;;;;;;3.63;2.83;;;4.50;99.90;;;;;;4144889;28;20057;-55
2024/01/16 08:40:59;;;;;;;12.07;7.10;;;4.30;99.90;;;;;;4144618;28;20305;-58
2024/01/16 08:43:00;;;;;;;7.47;4.80;;;4.30;99.90;;;;;;4145414;28;20272;-58
2024/01/16 08:45:01;;;;;;;4.23;2.80;;;4.40;99.90;;;;;;4144920;28;20337;-58
2024/01/16 08:47:04;;;;;;;4.67;3.03;;;4.50;99.90;;;;;;4145419;28;20287;-56
2024/01/16 08:49:05;;;;;;;5.40;3.80;;;4.50;99.90;;;;;;4161420;28;20320;-59
2024/01/16 08:51:11;;;;;;;4.87;3.60;;;4.20;99.90;;;;;;4151110;28;20268;-59
2024/01/16 08:53:12;;;;;;;4.73;3.33;;;4.10;99.90;;;;;;4145228;28;20275;-57
2024/01/16 08:55:14;;;;;;;7.30;4.07;;;4.10;99.90;;;;;;4145567;28;20252;-58
2024/01/16 08:57:15;;;;;;;4.30;2.30;;;4.20;99.90;;;;;;4144811;28;20394;-59
2024/01/16 08:59:17;;;;;;;4.60;2.97;;;3.90;99.90;;;;;;4144869;28;20683;-58
2024/01/16 09:01:18;;;;;;;7.17;2.60;;;4.00;99.90;;;;;;4145077;28;20275;-56
2024/01/16 09:03:19;;;;;;;3.80;2.60;;;3.70;99.90;;;;;;4144880;28;20259;-57
2024/01/16 09:05:25;;;;;;;3.73;2.27;;;3.80;99.90;;;;;;4145204;28;20321;-54
2024/01/16 09:07:27;;;;;;;4.90;2.13;;;3.50;99.90;;;;;;4144979;28;20275;-59
2024/01/16 09:09:28;;;;;;;5.83;2.90;;;3.50;99.90;;;;;;4145232;28;20271;-56
2024/01/16 09:11:29;;;;;;;11.67;3.03;;;3.60;99.90;;;;;;4144914;28;20719;-58
2024/01/16 09:13:31;;;;;;;4.03;2.70;;;3.70;99.90;;;;;;4144646;28;20861;-58
2024/01/16 09:15:32;;;;;;;5.50;2.57;;;3.80;99.90;;;;;;4144659;28;20322;-59
2024/01/16 09:17:33;;;;;;;6.20;3.30;;;3.80;99.90;;;;;;4143719;28;20776;-56
2024/01/16 09:19:34;;;;;;;3.90;2.80;;;3.80;99.90;;;;;;4144661;28;20356;-58
2024/01/16 09:21:35;;;;;;;4.27;2.27;;;3.60;99.90;;;;;;4144642;28;20271;-56
2024/01/16 09:23:37;;;;;;;4.03;2.57;;;3.60;99.90;;;;;;4144697;28;20326;-58
2024/01/16 09:25:38;;;;;;;3.00;2.20;;;3.40;99.90;;;;;;4144441;28;20321;-60
2024/01/16 09:27:39;;;;;;;3.63;2.53;;;3.30;99.90;;;;;;4144167;28;20397;-58
2024/01/16 09:29:40;;;;;;;3.33;2.23;;;3.30;99.90;;;;;;4144898;28;20255;-55
2024/01/16 09:31:42;;;;;;;4.10;2.70;;;3.30;99.90;;;;;;4144394;28;20271;-56
2024/01/16 09:33:43;;;;;;;2.17;1.83;;;3.40;99.90;;;;;;4144584;28;20821;-53
2024/01/16 09:35:45;;;;;;;6.33;2.73;;;3.30;99.90;;;;;;4144303;28;20325;-58
2024/01/16 09:37:46;;;;;;;10.47;4.50;;;3.60;99.90;;;;;;4143201;28;20334;-57
2024/01/16 09:39:48;;;;;;;7.83;4.00;;;3.70;99.90;;;;;;4144355;28;20333;-58
2024/01/16 09:41:50;;;;;;;8.10;4.77;;;3.70;99.90;;;;;;4143987;28;20268;-57
2024/01/16 09:43:51;;;;;;;15.27;7.83;;;3.40;99.80;;;;;;4144312;28;20263;-56
2024/01/16 09:45:55;;;;;;;13.70;5.63;;;3.40;99.90;;;;;;4143850;28;20271;-57
2024/01/16 09:47:57;;;;;;;14.10;4.40;;;3.40;99.90;;;;;;4143888;28;20283;-53
2024/01/16 09:50:02;;;;;;;4.43;2.93;;;3.40;99.90;;;;;;4143724;28;20346;-58
2024/01/16 09:52:04;;;;;;;6.63;2.63;;;3.40;99.90;;;;;;4143593;28;20264;-58
2024/01/16 09:54:08;;;;;;;17.30;5.77;;;3.30;99.90;;;;;;4144113;28;20318;-57
2024/01/16 09:56:15;;;;;;;10.90;5.33;;;3.30;99.90;;;;;;4144372;28;20350;-57
2024/01/16 09:58:20;;;;;;;13.83;6.20;;;3.40;99.90;;;;;;4143927;28;20272;-57
2024/01/16 10:00:24;;;;;;;7.23;3.97;;;3.50;99.90;;;;;;4143622;28;20771;-52
2024/01/16 10:02:25;;;;;;;7.77;3.70;;;3.40;99.10;;;;;;4143949;28;20338;-58
2024/01/16 10:04:27;;;;;;;6.07;2.53;;;3.40;99.40;;;;;;4143786;28;20279;-57
2024/01/16 10:06:31;;;;;;;4.37;2.13;;;3.40;99.20;;;;;;4144098;28;20267;-53
2024/01/16 10:08:33;;;;;;;5.77;2.40;;;3.30;99.20;;;;;;4144079;28;20959;-57
2024/01/16 10:10:34;;;;;;;31.30;11.63;;;3.30;99.30;;;;;;4143721;28;20605;-59
2024/01/16 10:12:35;;;;;;;15.67;6.50;;;3.30;99.10;;;;;;4143780;28;20287;-58
2024/01/16 10:14:38;;;;;;;13.43;6.43;;;3.40;99.00;;;;;;4144471;28;21354;-57
2024/01/16 10:16:59;;;;;;;6.93;4.17;;;3.40;98.80;;;;;;4143839;28;20283;-56
2024/01/16 10:19:04;;;;;;;;;;;3.30;98.20;;;;;;4143520;28;20307;-57
2024/01/16 10:21:19;;;;;;;28.37;12.47;;;3.10;97.90;;;;;;4143736;28;19910;-58
2024/01/16 10:23:27;;;;;;;12.73;5.93;;;3.00;98.50;;;;;;4143513;28;20337;-58
2024/01/16 10:25:28;;;;;;;8.67;3.67;;;2.90;98.70;;;;;;4128126;28;20326;-56
2024/01/16 10:27:31;;;;;;;2.70;2.23;;;2.90;99.00;;;;;;4132340;28;20283;-57
2024/01/16 10:29:32;;;;;;;4.23;2.53;;;2.80;99.50;;;;;;4144128;28;20267;-58
2024/01/16 10:31:33;;;;;;;3.57;2.40;;;2.80;99.70;;;;;;4143925;28;20283;-57
2024/01/16 10:33:37;;;;;;;3.57;2.13;;;2.80;99.90;;;;;;4143682;28;20264;-57
2024/01/16 10:35:38;;;;;;;4.80;3.60;;;2.70;99.90;;;;;;4143936;28;20283;-58